sensor_id;sensor_type;location;lat;lon;timestamp;temperature;humidity
17437;DHT22;73152;52.198;5.422;2024-02-26T00:01:32;20.40;49.60
17437;DHT22;73152;52.198;5.422;2024-02-26T00:04:01;20.40;49.50
17437;DHT22;73152;52.198;5.422;2024-02-26T00:06:31;20.40;49.60
17437;DHT22;73152;52.198;5.422;2024-02-26T00:09:00;20.40;49.50
17437;DHT22;73152;52.198;5.422;2024-02-26T00:11:34;20.40;49.50
17437;DHT22;73152;52.198;5.422;2024-02-26T00:14:04;20.40;49.50
17437;DHT22;73152;52.198;5.422;2024-02-26T00:19:59;20.40;49.50
17437;DHT22;73152;52.198;5.422;2024-02-26T00:22:30;20.40;49.50
17437;DHT22;73152;52.198;5.422;2024-02-26T00:24:58;20.40;49.50
17437;DHT22;73152;52.198;5.422;2024-02-26T00:34:23;20.40;49.50
17437;DHT22;73152;52.198;5.422;2024-02-26T00:36:52;20.40;49.50
17437;DHT22;73152;52.198;5.422;2024-02-26T00:39:20;20.40;49.40
17437;DHT22;73152;52.198;5.422;2024-02-26T00:41:49;20.40;49.40
17437;DHT22;73152;52.198;5.422;2024-02-26T00:44:19;20.40;49.40
17437;DHT22;73152;52.198;5.422;2024-02-26T00:46:48;20.40;49.40
17437;DHT22;73152;52.198;5.422;2024-02-26T00:49:17;20.40;49.40
17437;DHT22;73152;52.198;5.422;2024-02-26T00:58:41;20.30;49.40
17437;DHT22;73152;52.198;5.422;2024-02-26T01:01:09;20.30;49.40
17437;DHT22;73152;52.198;5.422;2024-02-26T01:03:39;20.30;49.40
17437;DHT22;73152;52.198;5.422;2024-02-26T01:06:07;20.30;49.40
17437;DHT22;73152;52.198;5.422;2024-02-26T01:08:36;20.30;49.40
17437;DHT22;73152;52.198;5.422;2024-02-26T01:11:05;20.30;49.30
17437;DHT22;73152;52.198;5.422;2024-02-26T01:13:34;20.30;49.30
17437;DHT22;73152;52.198;5.422;2024-02-26T01:16:06;20.30;49.30
17437;DHT22;73152;52.198;5.422;2024-02-26T01:18:36;20.30;49.40
17437;DHT22;73152;52.198;5.422;2024-02-26T01:21:05;20.30;49.30
17437;DHT22;73152;52.198;5.422;2024-02-26T01:26:56;20.30;49.40
17437;DHT22;73152;52.198;5.422;2024-02-26T01:29:29;20.30;49.40
17437;DHT22;73152;52.198;5.422;2024-02-26T01:32:01;20.30;49.30
17437;DHT22;73152;52.198;5.422;2024-02-26T01:37:57;20.30;49.30
17437;DHT22;73152;52.198;5.422;2024-02-26T01:46:57;20.30;49.40
17437;DHT22;73152;52.198;5.422;2024-02-26T01:56:31;20.30;49.40
17437;DHT22;73152;52.198;5.422;2024-02-26T01:59:02;20.30;49.30
17437;DHT22;73152;52.198;5.422;2024-02-26T02:01:34;20.30;49.40
17437;DHT22;73152;52.198;5.422;2024-02-26T02:04:03;20.30;49.30
17437;DHT22;73152;52.198;5.422;2024-02-26T02:06:32;20.20;49.40
17437;DHT22;73152;52.198;5.422;2024-02-26T02:09:01;20.30;49.40
17437;DHT22;73152;52.198;5.422;2024-02-26T02:11:34;20.30;49.50
17437;DHT22;73152;52.198;5.422;2024-02-26T02:14:03;20.20;49.60
17437;DHT22;73152;52.198;5.422;2024-02-26T02:16:32;20.30;49.60
17437;DHT22;73152;52.198;5.422;2024-02-26T02:19:01;20.30;49.70
17437;DHT22;73152;52.198;5.422;2024-02-26T02:21:33;20.20;49.60
17437;DHT22;73152;52.198;5.422;2024-02-26T02:24:02;20.30;49.70
17437;DHT22;73152;52.198;5.422;2024-02-26T02:26:31;20.30;49.70
17437;DHT22;73152;52.198;5.422;2024-02-26T02:34:57;20.20;49.70
17437;DHT22;73152;52.198;5.422;2024-02-26T02:41:23;20.20;49.70
17437;DHT22;73152;52.198;5.422;2024-02-26T02:43:53;20.30;49.80
17437;DHT22;73152;52.198;5.422;2024-02-26T02:46:21;20.20;49.70
17437;DHT22;73152;52.198;5.422;2024-02-26T02:48:50;20.30;49.80
17437;DHT22;73152;52.198;5.422;2024-02-26T02:51:19;20.20;49.70
17437;DHT22;73152;52.198;5.422;2024-02-26T02:57:17;20.20;49.70
17437;DHT22;73152;52.198;5.422;2024-02-26T02:59:46;20.20;49.70
17437;DHT22;73152;52.198;5.422;2024-02-26T03:05:29;20.20;49.70
17437;DHT22;73152;52.198;5.422;2024-02-26T03:07:58;20.20;49.70
17437;DHT22;73152;52.198;5.422;2024-02-26T03:10:27;20.20;49.70
17437;DHT22;73152;52.198;5.422;2024-02-26T03:12:59;20.20;49.60
17437;DHT22;73152;52.198;5.422;2024-02-26T03:15:28;20.30;49.60
17437;DHT22;73152;52.198;5.422;2024-02-26T03:21:25;20.20;49.60
17437;DHT22;73152;52.198;5.422;2024-02-26T03:23:56;20.20;49.60
17437;DHT22;73152;52.198;5.422;2024-02-26T03:29:48;20.20;49.60
17437;DHT22;73152;52.198;5.422;2024-02-26T03:32:30;20.20;49.60
17437;DHT22;73152;52.198;5.422;2024-02-26T03:34:58;20.20;49.60
17437;DHT22;73152;52.198;5.422;2024-02-26T03:44:03;20.20;49.60
17437;DHT22;73152;52.198;5.422;2024-02-26T03:50:02;20.20;49.50
17437;DHT22;73152;52.198;5.422;2024-02-26T03:52:32;20.20;49.50
17437;DHT22;73152;52.198;5.422;2024-02-26T03:55:02;20.20;49.50
17437;DHT22;73152;52.198;5.422;2024-02-26T04:00:57;20.20;49.50
17437;DHT22;73152;52.198;5.422;2024-02-26T04:03:26;20.20;49.50
17437;DHT22;73152;52.198;5.422;2024-02-26T04:05:57;20.20;49.40
17437;DHT22;73152;52.198;5.422;2024-02-26T04:11:29;20.20;49.40
17437;DHT22;73152;52.198;5.422;2024-02-26T04:13:58;20.20;49.40
17437;DHT22;73152;52.198;5.422;2024-02-26T04:16:28;20.20;49.40
17437;DHT22;73152;52.198;5.422;2024-02-26T04:18:57;20.20;49.40
17437;DHT22;73152;52.198;5.422;2024-02-26T04:21:28;20.20;49.40
17437;DHT22;73152;52.198;5.422;2024-02-26T04:23:57;20.20;49.40
17437;DHT22;73152;52.198;5.422;2024-02-26T04:29:53;20.20;49.40
17437;DHT22;73152;52.198;5.422;2024-02-26T04:32:22;20.20;49.40
17437;DHT22;73152;52.198;5.422;2024-02-26T04:34:51;20.20;49.30
17437;DHT22;73152;52.198;5.422;2024-02-26T04:40:39;20.20;49.30
17437;DHT22;73152;52.198;5.422;2024-02-26T04:43:08;20.20;49.30
17437;DHT22;73152;52.198;5.422;2024-02-26T04:45:37;20.20;49.30
17437;DHT22;73152;52.198;5.422;2024-02-26T04:48:06;20.20;49.30
17437;DHT22;73152;52.198;5.422;2024-02-26T04:50:35;20.20;49.40
17437;DHT22;73152;52.198;5.422;2024-02-26T04:53:04;20.20;49.30
17437;DHT22;73152;52.198;5.422;2024-02-26T04:55:33;20.20;49.30
17437;DHT22;73152;52.198;5.422;2024-02-26T05:01:31;20.20;49.30
17437;DHT22;73152;52.198;5.422;2024-02-26T05:04:01;20.20;49.30
17437;DHT22;73152;52.198;5.422;2024-02-26T05:06:31;20.20;49.30
17437;DHT22;73152;52.198;5.422;2024-02-26T05:09:00;20.20;49.30
17437;DHT22;73152;52.198;5.422;2024-02-26T05:11:29;20.20;49.30
17437;DHT22;73152;52.198;5.422;2024-02-26T05:13:58;20.20;49.20
17437;DHT22;73152;52.198;5.422;2024-02-26T05:16:27;20.20;49.30
17437;DHT22;73152;52.198;5.422;2024-02-26T05:18:59;20.20;49.30
17437;DHT22;73152;52.198;5.422;2024-02-26T05:31:50;20.20;49.40
17437;DHT22;73152;52.198;5.422;2024-02-26T05:34:22;20.10;49.40
17437;DHT22;73152;52.198;5.422;2024-02-26T05:40:17;20.20;49.40
17437;DHT22;73152;52.198;5.422;2024-02-26T05:50:06;20.20;49.40
17437;DHT22;73152;52.198;5.422;2024-02-26T05:52:36;20.10;49.40
17437;DHT22;73152;52.198;5.422;2024-02-26T05:55:06;20.10;49.40
17437;DHT22;73152;52.198;5.422;2024-02-26T06:01:20;20.10;49.40
17437;DHT22;73152;52.198;5.422;2024-02-26T06:07:19;20.10;49.40
17437;DHT22;73152;52.198;5.422;2024-02-26T06:10:15;20.10;49.40
17437;DHT22;73152;52.198;5.422;2024-02-26T06:16:13;20.10;49.40
17437;DHT22;73152;52.198;5.422;2024-02-26T06:18:42;20.10;49.40
17437;DHT22;73152;52.198;5.422;2024-02-26T06:21:11;20.20;49.40
17437;DHT22;73152;52.198;5.422;2024-02-26T06:23:42;20.10;49.30
17437;DHT22;73152;52.198;5.422;2024-02-26T06:26:11;20.20;49.30
17437;DHT22;73152;52.198;5.422;2024-02-26T06:28:40;20.10;49.40
17437;DHT22;73152;52.198;5.422;2024-02-26T06:31:09;20.10;49.40
17437;DHT22;73152;52.198;5.422;2024-02-26T06:33:37;20.10;49.40
17437;DHT22;73152;52.198;5.422;2024-02-26T06:36:06;20.10;49.40
17437;DHT22;73152;52.198;5.422;2024-02-26T06:42:05;20.10;49.40
17437;DHT22;73152;52.198;5.422;2024-02-26T06:44:34;20.10;49.40
17437;DHT22;73152;52.198;5.422;2024-02-26T06:47:03;20.10;49.40
17437;DHT22;73152;52.198;5.422;2024-02-26T06:49:32;20.10;49.40
17437;DHT22;73152;52.198;5.422;2024-02-26T06:52:01;20.20;49.30
17437;DHT22;73152;52.198;5.422;2024-02-26T06:54:31;20.10;49.40
17437;DHT22;73152;52.198;5.422;2024-02-26T06:57:00;20.10;49.40
17437;DHT22;73152;52.198;5.422;2024-02-26T06:59:32;20.10;49.30
17437;DHT22;73152;52.198;5.422;2024-02-26T07:02:01;20.10;49.00
17437;DHT22;73152;52.198;5.422;2024-02-26T07:07:56;20.10;49.10
17437;DHT22;73152;52.198;5.422;2024-02-26T07:10:25;20.20;49.20
17437;DHT22;73152;52.198;5.422;2024-02-26T07:12:53;20.10;49.00
17437;DHT22;73152;52.198;5.422;2024-02-26T07:15:25;20.20;49.00
17437;DHT22;73152;52.198;5.422;2024-02-26T07:17:54;20.20;49.10
17437;DHT22;73152;52.198;5.422;2024-02-26T07:20:23;20.20;49.00
17437;DHT22;73152;52.198;5.422;2024-02-26T07:22:52;20.10;49.10
17437;DHT22;73152;52.198;5.422;2024-02-26T07:25:21;20.10;49.10
17437;DHT22;73152;52.198;5.422;2024-02-26T07:27:50;20.10;48.80
17437;DHT22;73152;52.198;5.422;2024-02-26T07:30:19;20.20;49.00
17437;DHT22;73152;52.198;5.422;2024-02-26T07:32:50;20.10;49.00
17437;DHT22;73152;52.198;5.422;2024-02-26T07:35:19;20.20;49.00
17437;DHT22;73152;52.198;5.422;2024-02-26T07:37:48;20.10;49.10
17437;DHT22;73152;52.198;5.422;2024-02-26T07:40:18;20.10;49.00
17437;DHT22;73152;52.198;5.422;2024-02-26T07:42:47;20.10;49.10
17437;DHT22;73152;52.198;5.422;2024-02-26T07:45:16;20.10;49.10
17437;DHT22;73152;52.198;5.422;2024-02-26T07:47:45;20.20;49.00
17437;DHT22;73152;52.198;5.422;2024-02-26T07:50:17;20.20;48.70
17437;DHT22;73152;52.198;5.422;2024-02-26T07:52:46;20.20;48.80
17437;DHT22;73152;52.198;5.422;2024-02-26T07:55:16;20.20;48.80
17437;DHT22;73152;52.198;5.422;2024-02-26T07:57:45;20.20;48.90
17437;DHT22;73152;52.198;5.422;2024-02-26T08:00:15;20.10;49.00
17437;DHT22;73152;52.198;5.422;2024-02-26T08:02:45;20.20;48.80
17437;DHT22;73152;52.198;5.422;2024-02-26T08:05:16;20.20;48.90
17437;DHT22;73152;52.198;5.422;2024-02-26T08:07:45;20.20;48.80
17437;DHT22;73152;52.198;5.422;2024-02-26T08:10:15;20.20;48.80
17437;DHT22;73152;52.198;5.422;2024-02-26T08:12:44;20.20;48.80
17437;DHT22;73152;52.198;5.422;2024-02-26T08:15:13;20.20;48.10
17437;DHT22;73152;52.198;5.422;2024-02-26T08:17:42;20.20;48.30
17437;DHT22;73152;52.198;5.422;2024-02-26T08:20:15;20.20;48.30
17437;DHT22;73152;52.198;5.422;2024-02-26T08:22:44;20.20;48.50
17437;DHT22;73152;52.198;5.422;2024-02-26T08:25:13;20.20;48.60
17437;DHT22;73152;52.198;5.422;2024-02-26T08:27:43;20.20;48.60
17437;DHT22;73152;52.198;5.422;2024-02-26T08:30:14;20.20;48.80
17437;DHT22;73152;52.198;5.422;2024-02-26T08:32:43;20.20;48.70
17437;DHT22;73152;52.198;5.422;2024-02-26T08:35:12;20.20;48.90
17437;DHT22;73152;52.198;5.422;2024-02-26T08:37:44;20.20;48.80
17437;DHT22;73152;52.198;5.422;2024-02-26T08:40:13;20.20;48.40
17437;DHT22;73152;52.198;5.422;2024-02-26T08:42:43;20.20;48.90
17437;DHT22;73152;52.198;5.422;2024-02-26T08:45:12;20.20;49.10
17437;DHT22;73152;52.198;5.422;2024-02-26T08:47:41;20.20;49.00
17437;DHT22;73152;52.198;5.422;2024-02-26T08:50:10;20.20;49.20
17437;DHT22;73152;52.198;5.422;2024-02-26T08:52:41;20.20;49.30
17437;DHT22;73152;52.198;5.422;2024-02-26T08:55:14;20.20;49.20
17437;DHT22;73152;52.198;5.422;2024-02-26T09:01:09;20.20;49.50
17437;DHT22;73152;52.198;5.422;2024-02-26T09:03:38;20.20;49.20
17437;DHT22;73152;52.198;5.422;2024-02-26T09:06:09;20.20;49.50
17437;DHT22;73152;52.198;5.422;2024-02-26T09:08:40;20.30;49.40
17437;DHT22;73152;52.198;5.422;2024-02-26T09:11:09;20.30;49.30
17437;DHT22;73152;52.198;5.422;2024-02-26T09:13:38;20.30;49.20
17437;DHT22;73152;52.198;5.422;2024-02-26T09:16:08;20.30;49.20
17437;DHT22;73152;52.198;5.422;2024-02-26T09:18:37;20.30;49.40
17437;DHT22;73152;52.198;5.422;2024-02-26T09:21:08;20.30;49.30
17437;DHT22;73152;52.198;5.422;2024-02-26T09:23:39;20.30;49.30
17437;DHT22;73152;52.198;5.422;2024-02-26T09:26:08;20.30;49.40
17437;DHT22;73152;52.198;5.422;2024-02-26T09:28:37;20.30;49.30
17437;DHT22;73152;52.198;5.422;2024-02-26T09:31:06;20.30;49.20
17437;DHT22;73152;52.198;5.422;2024-02-26T09:33:35;20.30;49.20
17437;DHT22;73152;52.198;5.422;2024-02-26T09:36:04;20.30;49.00
17437;DHT22;73152;52.198;5.422;2024-02-26T09:38:36;20.30;48.80
17437;DHT22;73152;52.198;5.422;2024-02-26T09:41:14;20.30;49.10
17437;DHT22;73152;52.198;5.422;2024-02-26T09:43:45;20.30;48.30
17437;DHT22;73152;52.198;5.422;2024-02-26T09:46:14;20.30;48.90
17437;DHT22;73152;52.198;5.422;2024-02-26T09:55:11;20.20;49.20
17437;DHT22;73152;52.198;5.422;2024-02-26T09:57:45;20.20;48.80
17437;DHT22;73152;52.198;5.422;2024-02-26T10:00:17;20.30;48.60
17437;DHT22;73152;52.198;5.422;2024-02-26T10:02:48;20.30;48.40
17437;DHT22;73152;52.198;5.422;2024-02-26T10:05:17;20.30;48.70
17437;DHT22;73152;52.198;5.422;2024-02-26T10:07:47;20.30;48.50
17437;DHT22;73152;52.198;5.422;2024-02-26T10:10:17;20.30;48.50
17437;DHT22;73152;52.198;5.422;2024-02-26T10:12:49;20.30;48.60
17437;DHT22;73152;52.198;5.422;2024-02-26T10:19:02;20.30;48.50
17437;DHT22;73152;52.198;5.422;2024-02-26T10:21:31;20.30;48.70
17437;DHT22;73152;52.198;5.422;2024-02-26T10:27:28;20.30;48.00
17437;DHT22;73152;52.198;5.422;2024-02-26T10:30:03;20.30;48.40
17437;DHT22;73152;52.198;5.422;2024-02-26T10:32:32;20.30;48.80
17437;DHT22;73152;52.198;5.422;2024-02-26T10:35:04;20.30;48.70
17437;DHT22;73152;52.198;5.422;2024-02-26T10:37:36;20.30;48.80
17437;DHT22;73152;52.198;5.422;2024-02-26T10:40:09;20.30;48.90
17437;DHT22;73152;52.198;5.422;2024-02-26T10:42:38;20.30;48.80
17437;DHT22;73152;52.198;5.422;2024-02-26T10:45:10;20.30;48.80
17437;DHT22;73152;52.198;5.422;2024-02-26T10:47:40;20.30;48.80
17437;DHT22;73152;52.198;5.422;2024-02-26T10:50:34;20.30;48.70
17437;DHT22;73152;52.198;5.422;2024-02-26T10:53:05;20.40;48.70
17437;DHT22;73152;52.198;5.422;2024-02-26T10:55:42;20.40;48.60
17437;DHT22;73152;52.198;5.422;2024-02-26T10:58:14;20.40;48.60
17437;DHT22;73152;52.198;5.422;2024-02-26T11:00:48;20.40;48.60
17437;DHT22;73152;52.198;5.422;2024-02-26T11:03:25;20.40;48.50
17437;DHT22;73152;52.198;5.422;2024-02-26T11:06:01;20.40;48.50
17437;DHT22;73152;52.198;5.422;2024-02-26T11:08:32;20.40;48.40
17437;DHT22;73152;52.198;5.422;2024-02-26T11:11:01;20.40;48.30
17437;DHT22;73152;52.198;5.422;2024-02-26T11:13:31;20.40;48.30
17437;DHT22;73152;52.198;5.422;2024-02-26T11:16:03;20.40;48.20
17437;DHT22;73152;52.198;5.422;2024-02-26T11:18:35;20.40;48.10
17437;DHT22;73152;52.198;5.422;2024-02-26T11:21:05;20.40;48.00
17437;DHT22;73152;52.198;5.422;2024-02-26T11:23:36;20.40;47.90
17437;DHT22;73152;52.198;5.422;2024-02-26T11:26:07;20.50;47.70
17437;DHT22;73152;52.198;5.422;2024-02-26T11:35:05;20.50;47.50
17437;DHT22;73152;52.198;5.422;2024-02-26T11:37:36;20.50;47.40
17437;DHT22;73152;52.198;5.422;2024-02-26T11:40:10;20.50;47.40
17437;DHT22;73152;52.198;5.422;2024-02-26T11:42:44;20.50;47.30
17437;DHT22;73152;52.198;5.422;2024-02-26T11:48:23;20.50;47.20
17437;DHT22;73152;52.198;5.422;2024-02-26T11:57:26;20.50;46.90
17437;DHT22;73152;52.198;5.422;2024-02-26T11:59:57;20.50;46.90
17437;DHT22;73152;52.198;5.422;2024-02-26T12:02:41;20.50;46.90
17437;DHT22;73152;52.198;5.422;2024-02-26T12:05:15;20.50;46.90
17437;DHT22;73152;52.198;5.422;2024-02-26T12:07:46;20.50;46.80
17437;DHT22;73152;52.198;5.422;2024-02-26T12:10:23;20.50;46.80
17437;DHT22;73152;52.198;5.422;2024-02-26T12:12:58;20.50;46.70
17437;DHT22;73152;52.198;5.422;2024-02-26T12:15:32;20.50;46.70
17437;DHT22;73152;52.198;5.422;2024-02-26T12:18:03;20.50;46.60
17437;DHT22;73152;52.198;5.422;2024-02-26T12:20:35;20.50;46.60
17437;DHT22;73152;52.198;5.422;2024-02-26T12:23:05;20.50;46.60
17437;DHT22;73152;52.198;5.422;2024-02-26T12:25:36;20.50;46.50
17437;DHT22;73152;52.198;5.422;2024-02-26T12:28:07;20.50;46.50
17437;DHT22;73152;52.198;5.422;2024-02-26T12:30:36;20.60;46.50
17437;DHT22;73152;52.198;5.422;2024-02-26T12:33:05;20.60;46.40
17437;DHT22;73152;52.198;5.422;2024-02-26T12:35:35;20.60;46.30
17437;DHT22;73152;52.198;5.422;2024-02-26T12:38:04;20.60;46.30
17437;DHT22;73152;52.198;5.422;2024-02-26T12:40:36;20.60;46.30
17437;DHT22;73152;52.198;5.422;2024-02-26T12:43:05;20.60;46.30
17437;DHT22;73152;52.198;5.422;2024-02-26T12:45:39;20.60;46.20
17437;DHT22;73152;52.198;5.422;2024-02-26T12:48:10;20.60;46.30
17437;DHT22;73152;52.198;5.422;2024-02-26T12:50:44;20.60;46.20
17437;DHT22;73152;52.198;5.422;2024-02-26T12:53:14;20.60;46.20
17437;DHT22;73152;52.198;5.422;2024-02-26T12:55:46;20.60;46.10
17437;DHT22;73152;52.198;5.422;2024-02-26T12:58:16;20.60;46.20
17437;DHT22;73152;52.198;5.422;2024-02-26T13:00:46;20.50;46.20
17437;DHT22;73152;52.198;5.422;2024-02-26T13:03:15;20.60;46.10
17437;DHT22;73152;52.198;5.422;2024-02-26T13:05:45;20.60;46.10
17437;DHT22;73152;52.198;5.422;2024-02-26T13:08:17;20.60;46.10
17437;DHT22;73152;52.198;5.422;2024-02-26T13:10:49;20.60;46.00
17437;DHT22;73152;52.198;5.422;2024-02-26T13:13:18;20.50;46.00
17437;DHT22;73152;52.198;5.422;2024-02-26T13:15:48;20.50;46.00
17437;DHT22;73152;52.198;5.422;2024-02-26T13:18:17;20.50;46.00
17437;DHT22;73152;52.198;5.422;2024-02-26T13:20:43;20.50;45.90
17437;DHT22;73152;52.198;5.422;2024-02-26T13:23:12;20.50;45.90
17437;DHT22;73152;52.198;5.422;2024-02-26T13:25:41;20.50;45.90
17437;DHT22;73152;52.198;5.422;2024-02-26T13:28:15;20.50;45.90
17437;DHT22;73152;52.198;5.422;2024-02-26T13:30:50;20.50;45.90
17437;DHT22;73152;52.198;5.422;2024-02-26T13:33:22;20.50;45.80
17437;DHT22;73152;52.198;5.422;2024-02-26T13:35:52;20.50;45.80
17437;DHT22;73152;52.198;5.422;2024-02-26T13:38:22;20.50;45.80
17437;DHT22;73152;52.198;5.422;2024-02-26T13:40:51;20.50;45.70
17437;DHT22;73152;52.198;5.422;2024-02-26T13:43:23;20.50;45.70
17437;DHT22;73152;52.198;5.422;2024-02-26T13:45:52;20.50;45.70
17437;DHT22;73152;52.198;5.422;2024-02-26T13:48:21;20.50;45.70
17437;DHT22;73152;52.198;5.422;2024-02-26T13:50:51;20.50;45.70
17437;DHT22;73152;52.198;5.422;2024-02-26T13:53:20;20.50;45.80
17437;DHT22;73152;52.198;5.422;2024-02-26T13:55:49;20.50;45.70
17437;DHT22;73152;52.198;5.422;2024-02-26T13:58:18;20.50;45.70
17437;DHT22;73152;52.198;5.422;2024-02-26T14:00:51;20.50;45.60
17437;DHT22;73152;52.198;5.422;2024-02-26T14:03:21;20.50;45.40
17437;DHT22;73152;52.198;5.422;2024-02-26T14:05:53;20.50;45.50
17437;DHT22;73152;52.198;5.422;2024-02-26T14:08:22;20.50;45.50
17437;DHT22;73152;52.198;5.422;2024-02-26T14:10:51;20.50;45.60
17437;DHT22;73152;52.198;5.422;2024-02-26T14:13:20;20.50;45.60
17437;DHT22;73152;52.198;5.422;2024-02-26T14:15:52;20.40;45.70
17437;DHT22;73152;52.198;5.422;2024-02-26T14:18:21;20.40;45.80
17437;DHT22;73152;52.198;5.422;2024-02-26T14:20:50;20.40;45.80
17437;DHT22;73152;52.198;5.422;2024-02-26T14:23:19;20.40;45.60
17437;DHT22;73152;52.198;5.422;2024-02-26T14:25:48;20.40;45.80
17437;DHT22;73152;52.198;5.422;2024-02-26T14:28:17;20.40;45.80
17437;DHT22;73152;52.198;5.422;2024-02-26T14:30:46;20.50;45.90
17437;DHT22;73152;52.198;5.422;2024-02-26T14:33:18;20.40;46.00
17437;DHT22;73152;52.198;5.422;2024-02-26T14:35:47;20.50;46.00
17437;DHT22;73152;52.198;5.422;2024-02-26T14:38:16;20.50;46.10
17437;DHT22;73152;52.198;5.422;2024-02-26T14:40:45;20.50;46.20
17437;DHT22;73152;52.198;5.422;2024-02-26T14:43:14;20.50;46.20
17437;DHT22;73152;52.198;5.422;2024-02-26T14:45:43;20.50;46.20
17437;DHT22;73152;52.198;5.422;2024-02-26T14:48:12;20.50;46.20
17437;DHT22;73152;52.198;5.422;2024-02-26T14:50:43;20.50;46.30
17437;DHT22;73152;52.198;5.422;2024-02-26T14:53:12;20.50;46.30
17437;DHT22;73152;52.198;5.422;2024-02-26T14:55:42;20.50;46.50
17437;DHT22;73152;52.198;5.422;2024-02-26T14:58:10;20.50;46.50
17437;DHT22;73152;52.198;5.422;2024-02-26T15:00:39;20.50;46.60
17437;DHT22;73152;52.198;5.422;2024-02-26T15:03:09;20.50;46.50
17437;DHT22;73152;52.198;5.422;2024-02-26T15:05:39;20.50;46.50
17437;DHT22;73152;52.198;5.422;2024-02-26T15:08:11;20.50;46.50
17437;DHT22;73152;52.198;5.422;2024-02-26T15:10:41;20.50;46.50
17437;DHT22;73152;52.198;5.422;2024-02-26T15:13:13;20.50;46.40
17437;DHT22;73152;52.198;5.422;2024-02-26T15:15:43;20.50;46.40
17437;DHT22;73152;52.198;5.422;2024-02-26T15:18:12;20.50;46.30
17437;DHT22;73152;52.198;5.422;2024-02-26T15:20:42;20.60;46.20
17437;DHT22;73152;52.198;5.422;2024-02-26T15:23:15;20.50;46.30
17437;DHT22;73152;52.198;5.422;2024-02-26T15:25:44;20.50;46.30
17437;DHT22;73152;52.198;5.422;2024-02-26T15:28:14;20.50;46.30
17437;DHT22;73152;52.198;5.422;2024-02-26T15:30:43;20.60;46.20
17437;DHT22;73152;52.198;5.422;2024-02-26T15:33:12;20.60;46.10
17437;DHT22;73152;52.198;5.422;2024-02-26T15:35:41;20.50;46.10
17437;DHT22;73152;52.198;5.422;2024-02-26T15:38:10;20.50;46.10
17437;DHT22;73152;52.198;5.422;2024-02-26T15:40:42;20.50;46.10
17437;DHT22;73152;52.198;5.422;2024-02-26T15:43:12;20.50;46.00
17437;DHT22;73152;52.198;5.422;2024-02-26T15:45:42;20.50;46.00
17437;DHT22;73152;52.198;5.422;2024-02-26T15:48:10;20.50;46.00
17437;DHT22;73152;52.198;5.422;2024-02-26T15:50:39;20.50;46.00
17437;DHT22;73152;52.198;5.422;2024-02-26T15:53:09;20.50;46.00
17437;DHT22;73152;52.198;5.422;2024-02-26T15:55:38;20.60;46.00
17437;DHT22;73152;52.198;5.422;2024-02-26T15:58:11;20.60;45.90
17437;DHT22;73152;52.198;5.422;2024-02-26T16:00:40;20.50;46.00
17437;DHT22;73152;52.198;5.422;2024-02-26T16:03:09;20.50;45.90
17437;DHT22;73152;52.198;5.422;2024-02-26T16:05:39;20.50;45.80
17437;DHT22;73152;52.198;5.422;2024-02-26T16:08:20;20.60;45.90
17437;DHT22;73152;52.198;5.422;2024-02-26T16:10:50;20.60;45.90
17437;DHT22;73152;52.198;5.422;2024-02-26T16:13:22;20.50;46.00
17437;DHT22;73152;52.198;5.422;2024-02-26T16:15:56;20.50;46.00
17437;DHT22;73152;52.198;5.422;2024-02-26T16:18:31;20.50;46.00
17437;DHT22;73152;52.198;5.422;2024-02-26T16:21:03;20.50;46.00
17437;DHT22;73152;52.198;5.422;2024-02-26T16:23:32;20.50;46.00
17437;DHT22;73152;52.198;5.422;2024-02-26T16:29:07;20.50;46.10
17437;DHT22;73152;52.198;5.422;2024-02-26T16:31:36;20.50;46.10
17437;DHT22;73152;52.198;5.422;2024-02-26T16:34:05;20.50;46.20
17437;DHT22;73152;52.198;5.422;2024-02-26T16:36:34;20.40;46.30
17437;DHT22;73152;52.198;5.422;2024-02-26T16:39:03;20.50;46.00
17437;DHT22;73152;52.198;5.422;2024-02-26T16:41:33;20.50;46.10
17437;DHT22;73152;52.198;5.422;2024-02-26T16:44:03;20.40;46.20
17437;DHT22;73152;52.198;5.422;2024-02-26T16:46:35;20.40;46.20
17437;DHT22;73152;52.198;5.422;2024-02-26T16:49:04;20.40;46.40
17437;DHT22;73152;52.198;5.422;2024-02-26T16:55:00;20.40;46.50
17437;DHT22;73152;52.198;5.422;2024-02-26T16:57:30;20.40;46.60
17437;DHT22;73152;52.198;5.422;2024-02-26T16:59:59;20.30;46.80
17437;DHT22;73152;52.198;5.422;2024-02-26T17:02:31;20.40;47.00
17437;DHT22;73152;52.198;5.422;2024-02-26T17:08:26;20.40;47.20
17437;DHT22;73152;52.198;5.422;2024-02-26T17:10:59;20.30;47.30
17437;DHT22;73152;52.198;5.422;2024-02-26T17:13:30;20.30;47.40
17437;DHT22;73152;52.198;5.422;2024-02-26T17:19:28;20.30;47.60
17437;DHT22;73152;52.198;5.422;2024-02-26T17:21:57;20.30;47.70
17437;DHT22;73152;52.198;5.422;2024-02-26T17:24:26;20.30;47.80
17437;DHT22;73152;52.198;5.422;2024-02-26T17:26:55;20.30;47.80
17437;DHT22;73152;52.198;5.422;2024-02-26T17:29:24;20.30;47.80
17437;DHT22;73152;52.198;5.422;2024-02-26T17:31:53;20.30;48.00
17437;DHT22;73152;52.198;5.422;2024-02-26T17:34:21;20.30;48.00
17437;DHT22;73152;52.198;5.422;2024-02-26T17:36:53;20.20;48.20
17437;DHT22;73152;52.198;5.422;2024-02-26T17:39:22;20.30;48.20
17437;DHT22;73152;52.198;5.422;2024-02-26T17:41:51;20.20;48.40
17437;DHT22;73152;52.198;5.422;2024-02-26T17:44:20;20.20;48.40
17437;DHT22;73152;52.198;5.422;2024-02-26T17:46:51;20.20;48.50
17437;DHT22;73152;52.198;5.422;2024-02-26T17:49:20;20.20;48.50
17437;DHT22;73152;52.198;5.422;2024-02-26T17:51:55;20.20;48.30
17437;DHT22;73152;52.198;5.422;2024-02-26T17:54:24;20.20;48.60
17437;DHT22;73152;52.198;5.422;2024-02-26T17:56:53;20.20;48.70
17437;DHT22;73152;52.198;5.422;2024-02-26T17:59:22;20.20;48.70
17437;DHT22;73152;52.198;5.422;2024-02-26T18:01:52;20.20;49.00
17437;DHT22;73152;52.198;5.422;2024-02-26T18:04:21;20.20;49.30
17437;DHT22;73152;52.198;5.422;2024-02-26T18:06:49;20.20;49.40
17437;DHT22;73152;52.198;5.422;2024-02-26T18:09:21;20.20;49.30
17437;DHT22;73152;52.198;5.422;2024-02-26T18:11:52;20.20;49.80
17437;DHT22;73152;52.198;5.422;2024-02-26T18:14:22;20.20;49.90
17437;DHT22;73152;52.198;5.422;2024-02-26T18:16:51;20.20;50.00
17437;DHT22;73152;52.198;5.422;2024-02-26T18:19:20;20.20;50.20
17437;DHT22;73152;52.198;5.422;2024-02-26T18:21:49;20.20;50.20
17437;DHT22;73152;52.198;5.422;2024-02-26T18:24:21;20.20;50.30
17437;DHT22;73152;52.198;5.422;2024-02-26T18:26:52;20.20;50.20
17437;DHT22;73152;52.198;5.422;2024-02-26T18:29:21;20.20;50.10
17437;DHT22;73152;52.198;5.422;2024-02-26T18:31:50;20.20;50.10
17437;DHT22;73152;52.198;5.422;2024-02-26T18:34:19;20.20;50.10
17437;DHT22;73152;52.198;5.422;2024-02-26T18:36:50;20.10;50.20
17437;DHT22;73152;52.198;5.422;2024-02-26T18:39:21;20.10;50.40
17437;DHT22;73152;52.198;5.422;2024-02-26T18:41:51;20.20;50.40